Time;durP1;ratioP1;P1;durP2;ratioP2;P2;SDS_P1;SDS_P2;PMS_P1;PMS_P2;Temp;Humidity;BMP_temperature;BMP_pressure;BME280_temperature;BME280_humidity;BME280_pressure;Samples;Min_cycle;Max_cycle;Signal;HPM_P1;HPM_P2
2021/07/07 00:00:18;;;;;;;;;3.50;3.00;;;;;19.86;100.00;100960.53;5059329;28;45467;-77
2021/07/07 00:02:43;;;;;;;;;3.25;3.00;;;;;19.82;100.00;100951.00;5058218;28;46352;-78
2021/07/07 00:05:10;;;;;;;;;3.00;3.00;;;;;19.86;100.00;100957.88;5058794;28;45933;-77
2021/07/07 00:07:36;;;;;;;;;2.50;2.25;;;;;19.85;100.00;100962.31;5058382;28;45444;-77
2021/07/07 00:10:04;;;;;;;;;2.25;2.00;;;;;19.82;100.00;100959.81;5044806;28;45306;-77
2021/07/07 00:12:29;;;;;;;;;3.00;2.00;;;;;19.59;100.00;100925.66;5058564;28;45400;-77
2021/07/07 00:14:55;;;;;;;;;4.00;3.00;;;;;19.81;100.00;100962.56;5058238;28;45203;-77
2021/07/07 00:17:20;;;;;;;;;3.50;2.50;;;;;19.74;100.00;100955.84;5058733;28;45341;-77
2021/07/07 00:19:46;;;;;;;;;2.00;1.25;;;;;19.71;100.00;100953.34;5058552;28;45540;-77
2021/07/07 00:22:14;;;;;;;;;2.00;2.00;;;;;19.70;100.00;100946.34;5040332;28;48293;-77
2021/07/07 00:24:40;;;;;;;;;2.50;2.00;;;;;19.76;100.00;100964.56;5058333;28;45499;-77
2021/07/07 00:27:06;;;;;;;;;3.50;2.25;;;;;19.74;100.00;100961.13;5029036;28;45522;-76
2021/07/07 00:29:31;;;;;;;;;2.50;2.50;;;;;19.66;100.00;100956.19;5046769;28;45465;-77
2021/07/07 00:31:56;;;;;;;;;3.00;3.00;;;;;19.66;100.00;100972.09;5056367;28;46578;-77
2021/07/07 00:34:22;;;;;;;;;4.00;4.00;;;;;19.57;100.00;100964.59;5039851;28;45310;-77
2021/07/07 00:36:47;;;;;;;;;3.75;1.75;;;;;19.53;100.00;100970.94;5043665;28;46609;-76
2021/07/07 00:39:12;;;;;;;;;2.00;2.00;;;;;19.49;100.00;100967.59;5058702;28;45432;-77
2021/07/07 00:41:38;;;;;;;;;3.25;3.00;;;;;19.49;100.00;100975.53;5039693;28;47957;-76
2021/07/07 00:44:04;;;;;;;;;5.00;3.00;;;;;19.47;100.00;100972.09;5057950;28;45267;-76
2021/07/07 00:46:29;;;;;;;;;3.00;2.00;;;;;19.45;100.00;100967.78;5057997;28;45481;-77
2021/07/07 00:48:54;;;;;;;;;3.00;2.00;;;;;19.40;100.00;100951.25;5058181;28;45388;-78
2021/07/07 00:51:20;;;;;;;;;2.25;2.00;;;;;19.45;100.00;100966.00;5052288;28;45605;-78
2021/07/07 00:53:49;;;;;;;;;5.50;3.00;;;;;19.47;100.00;100960.66;5049815;28;45382;-77
2021/07/07 00:56:17;;;;;;;;;4.00;3.00;;;;;19.46;100.00;100964.19;5057424;28;45374;-77
2021/07/07 00:58:46;;;;;;;;;1.75;1.50;;;;;19.44;100.00;100966.91;5058363;28;45540;-78
2021/07/07 01:01:12;;;;;;;;;3.50;2.50;;;;;19.46;100.00;100966.84;5057619;28;45289;-76
2021/07/07 01:03:37;;;;;;;;;4.00;3.00;;;;;19.40;100.00;100948.63;5036183;28;45582;-78
2021/07/07 01:06:03;;;;;;;;;3.00;2.00;;;;;19.46;100.00;100959.78;5052419;28;45854;-78
2021/07/07 01:08:29;;;;;;;;;2.00;2.00;;;;;19.39;100.00;100953.06;5057710;28;45526;-79
2021/07/07 01:10:55;;;;;;;;;3.50;3.00;;;;;19.30;100.00;100947.34;5057749;28;46457;-78
2021/07/07 01:13:21;;;;;;;;;2.00;2.00;;;;;19.32;100.00;100959.56;5052720;28;45432;-77
2021/07/07 01:15:47;;;;;;;;;3.00;2.25;;;;;19.30;100.00;100960.59;5048714;28;45544;-78
2021/07/07 01:18:13;;;;;;;;;1.50;1.50;;;;;19.23;100.00;100955.56;5038497;28;45537;-77
2021/07/07 01:20:42;;;;;;;;;3.25;2.00;;;;;19.25;100.00;100963.44;5057286;28;47110;-76
2021/07/07 01:23:08;;;;;;;;;4.50;3.00;;;;;19.20;100.00;100963.63;5056961;28;45711;-78
2021/07/07 01:25:34;;;;;;;;;5.00;3.50;;;;;19.15;100.00;100955.06;5057523;28;45424;-76
2021/07/07 01:28:03;;;;;;;;;3.00;3.00;;;;;19.13;100.00;100959.56;5057335;28;45446;-77
2021/07/07 01:30:28;;;;;;;;;6.25;3.25;;;;;19.05;100.00;100950.28;5050887;28;46150;-77
2021/07/07 01:32:54;;;;;;;;;3.75;3.50;;;;;19.03;100.00;100944.19;5030698;28;45293;-76
2021/07/07 01:35:21;;;;;;;;;3.00;3.00;;;;;19.04;100.00;100949.41;5057489;28;45336;-77
2021/07/07 01:37:48;;;;;;;;;3.00;2.75;;;;;19.01;100.00;100949.56;5057540;28;45373;-77
2021/07/07 01:40:17;;;;;;;;;2.00;1.00;;;;;19.01;100.00;100960.16;5052219;28;45580;-76
2021/07/07 01:42:43;;;;;;;;;2.00;2.00;;;;;18.83;100.00;100940.66;5050727;28;45483;-76
2021/07/07 01:45:09;;;;;;;;;3.50;2.75;;;;;18.92;100.00;100958.75;5057306;28;45374;-77
2021/07/07 01:47:35;;;;;;;;;3.00;3.00;;;;;18.83;100.00;100953.03;5039154;28;45354;-77
2021/07/07 01:50:00;;;;;;;;;5.00;2.50;;;;;18.75;100.00;100956.00;5056666;28;45700;-77
2021/07/07 01:52:26;;;;;;;;;4.00;3.00;;;;;18.78;100.00;100968.22;5056985;28;45415;-77
2021/07/07 01:54:52;;;;;;;;;3.00;3.00;;;;;18.71;100.00;100959.72;5057027;28;45408;-77
2021/07/07 01:57:17;;;;;;;;;3.00;3.00;;;;;18.63;100.00;100957.44;5056986;28;45589;-77
2021/07/07 01:59:43;;;;;;;;;3.00;3.00;;;;;18.65;100.00;100963.50;5056619;28;45951;-77
2021/07/07 02:02:08;;;;;;;;;3.00;2.50;;;;;18.61;100.00;100961.03;5048050;28;45546;-77
2021/07/07 02:04:34;;;;;;;;;4.00;3.00;;;;;18.59;100.00;100970.81;5050900;28;45416;-77
2021/07/07 02:07:00;;;;;;;;;3.00;3.00;;;;;18.58;100.00;100985.84;5055843;28;45592;-77
2021/07/07 02:09:25;;;;;;;;;3.25;2.75;;;;;18.49;100.00;100957.13;5057157;28;46162;-78
2021/07/07 02:11:51;;;;;;;;;3.25;2.50;;;;;18.41;100.00;100951.31;5038434;28;45434;-77
2021/07/07 02:14:17;;;;;;;;;3.75;2.25;;;;;18.47;100.00;100961.63;5056386;28;45719;-77
2021/07/07 02:16:43;;;;;;;;;3.75;2.00;;;;;18.54;100.00;100971.00;5057018;28;45432;-76
2021/07/07 02:19:09;;;;;;;;;3.75;3.00;;;;;18.41;100.00;100951.31;5038387;28;48541;-77
2021/07/07 02:21:35;;;;;;;;;3.00;3.00;;;;;18.50;100.00;100972.06;5056590;28;45717;-77
2021/07/07 02:24:00;;;;;;;;;2.25;2.00;;;;;18.51;100.00;100963.22;5056435;28;45650;-76
2021/07/07 02:26:25;;;;;;;;;6.50;2.75;;;;;18.53;100.00;100969.28;5056103;28;45397;-77
2021/07/07 02:28:51;;;;;;;;;3.00;2.50;;;;;18.56;100.00;100970.97;5050918;28;46236;-76
2021/07/07 02:31:16;;;;;;;;;2.75;2.75;;;;;18.54;100.00;100971.00;5056372;28;45396;-78
2021/07/07 02:33:42;;;;;;;;;3.00;2.50;;;;;18.27;100.00;100928.13;5047574;28;45243;-77
2021/07/07 02:36:07;;;;;;;;;3.00;2.25;;;;;18.54;100.00;100963.06;5037949;28;45435;-77
2021/07/07 02:38:33;;;;;;;;;5.75;4.00;;;;;18.58;100.00;100975.25;5038007;28;45592;-76
2021/07/07 02:40:58;;;;;;;;;3.50;3.00;;;;;18.58;100.00;100977.03;5056019;28;45428;-77
2021/07/07 02:43:26;;;;;;;;;3.50;3.50;;;;;18.54;100.00;100968.34;5047231;28;45542;-78
2021/07/07 02:45:51;;;;;;;;;2.00;2.00;;;;;18.54;100.00;100978.06;5037596;28;45603;-75
2021/07/07 02:48:17;;;;;;;;;3.25;2.00;;;;;18.55;100.00;100972.72;5055979;28;45432;-76
2021/07/07 02:50:44;;;;;;;;;3.00;3.00;;;;;18.48;100.00;100960.69;5055945;28;45530;-77
2021/07/07 02:53:13;;;;;;;;;3.25;3.00;;;;;18.51;100.00;100971.13;5056443;28;45298;-77
2021/07/07 02:55:38;;;;;;;;;4.00;3.00;;;;;18.52;100.00;100970.22;5056137;28;45515;-77
2021/07/07 02:58:05;;;;;;;;;2.25;2.25;;;;;18.60;100.00;100988.41;5055027;28;46074;-77
2021/07/07 03:00:37;;;;;;;;;3.00;3.00;;;;;18.59;100.00;100987.56;5037855;28;45716;-77
2021/07/07 03:03:09;;;;;;;;;3.25;3.25;;;;;18.57;100.00;100984.13;5055871;28;45340;-77
2021/07/07 03:05:40;;;;;;;;;3.25;3.25;;;;;18.54;100.00;100975.44;5056342;28;45418;-77
2021/07/07 03:08:06;;;;;;;;;2.75;2.75;;;;;18.59;100.00;100997.28;5054750;28;46525;-78
2021/07/07 03:10:32;;;;;;;;;3.00;3.00;;;;;18.58;100.00;100996.41;5055825;28;45342;-78
2021/07/07 03:12:57;;;;;;;;;4.75;4.00;;;;;18.52;100.00;100985.22;5037680;28;45319;-78
2021/07/07 03:15:25;;;;;;;;;3.50;3.00;;;;;18.44;100.00;100974.97;5056785;28;45326;-77
2021/07/07 03:17:50;;;;;;;;;2.75;2.50;;;;;18.50;100.00;101000.28;5055697;28;45308;-78
2021/07/07 03:20:16;;;;;;;;;3.25;3.25;;;;;18.32;100.00;100976.34;5036848;28;45407;-78
2021/07/07 03:22:41;;;;;;;;;3.25;3.00;;;;;18.36;100.00;100991.19;5055946;28;45541;-78
2021/07/07 03:25:09;;;;;;;;;3.00;3.00;;;;;18.24;100.00;100996.13;5056113;28;45417;-77
2021/07/07 03:27:34;;;;;;;;;3.75;3.50;;;;;18.20;100.00;100986.59;5055940;28;46456;-78
2021/07/07 03:30:00;;;;;;;;;2.75;2.75;;;;;18.17;100.00;100990.22;5053497;28;45361;-78
2021/07/07 03:32:26;;;;;;;;;5.00;4.25;;;;;18.17;100.00;100997.31;5054416;28;45403;-77
2021/07/07 03:34:51;;;;;;;;;4.00;4.00;;;;;17.99;100.00;100962.78;5055484;28;45424;-77
2021/07/07 03:37:17;;;;;;;;;4.25;4.00;;;;;18.18;100.00;101001.66;5055580;28;46378;-78
2021/07/07 03:39:42;;;;;;;;;5.00;4.00;;;;;18.18;100.00;101012.22;5029273;28;45453;-78
2021/07/07 03:42:07;;;;;;;;;2.75;2.75;;;;;18.09;100.00;100996.75;5049755;28;45713;-77
2021/07/07 03:44:33;;;;;;;;;3.00;3.00;;;;;18.15;100.00;101015.00;5055836;28;45372;-77
2021/07/07 03:46:58;;;;;;;;;4.00;3.50;;;;;18.10;100.00;101007.25;5055591;28;46263;-77
2021/07/07 03:49:24;;;;;;;;;4.00;4.00;;;;;18.08;100.00;101005.59;5037331;28;45223;-77
2021/07/07 03:51:49;;;;;;;;;5.00;3.00;;;;;18.05;100.00;100999.50;5055693;28;45365;-77
2021/07/07 03:54:14;;;;;;;;;4.00;4.00;;;;;18.13;100.00;101008.94;5056407;28;45398;-76
2021/07/07 03:56:40;;;;;;;;;4.00;3.00;;;;;18.16;100.00;101022.00;5050290;28;46412;-77
2021/07/07 03:59:05;;;;;;;;;3.00;3.00;;;;;18.05;100.00;101003.94;5051426;28;45423;-78
2021/07/07 04:01:30;;;;;;;;;4.00;3.25;;;;;18.12;100.00;101018.63;5044740;28;45434;-77
2021/07/07 04:03:56;;;;;;;;;4.25;4.00;;;;;18.17;100.00;101016.66;5041065;28;45543;-77
2021/07/07 04:06:21;;;;;;;;;3.00;2.75;;;;;18.12;100.00;101007.22;5058104;28;45372;-77
2021/07/07 04:08:46;;;;;;;;;4.50;3.75;;;;;18.16;100.00;101014.94;5058873;28;45382;-77
2021/07/07 04:11:12;;;;;;;;;5.00;4.00;;;;;18.14;100.00;101015.94;5058629;28;45322;-77
2021/07/07 04:13:37;;;;;;;;;4.00;2.00;;;;;18.00;100.00;100996.19;5059173;28;45318;-77
2021/07/07 04:16:03;;;;;;;;;3.00;3.00;;;;;18.01;100.00;101005.84;5057970;28;45457;-78
2021/07/07 04:18:28;;;;;;;;;5.25;4.00;;;;;18.10;100.00;101028.38;5035460;28;45504;-77
2021/07/07 04:20:53;;;;;;;;;4.25;4.00;;;;;18.17;100.00;101031.66;5056484;28;45409;-77
2021/07/07 04:23:19;;;;;;;;;4.75;4.00;;;;;18.12;100.00;101025.72;5055728;28;45516;-77
2021/07/07 04:25:44;;;;;;;;;4.75;3.50;;;;;18.17;100.00;101029.88;5044381;28;45717;-76
2021/07/07 04:28:10;;;;;;;;;5.00;4.00;;;;;18.16;100.00;101028.16;5057701;28;45301;-76
2021/07/07 04:30:35;;;;;;;;;4.50;4.00;;;;;18.16;100.00;101035.22;5058549;28;45405;-77
2021/07/07 04:33:01;;;;;;;;;3.75;3.50;;;;;18.20;100.00;101048.25;5049279;28;45337;-76
2021/07/07 04:35:27;;;;;;;;;6.00;4.00;;;;;18.19;100.00;101045.66;5057951;28;46293;-77
2021/07/07 04:37:52;;;;;;;;;3.50;3.50;;;;;18.16;100.00;101041.38;5057120;28;45460;-76
2021/07/07 04:40:23;;;;;;;;;4.00;4.00;;;;;18.20;100.00;101050.03;5058282;28;45211;-77
2021/07/07 04:42:50;;;;;;;;;4.25;3.00;;;;;18.26;100.00;101058.56;5053192;28;45362;-77
2021/07/07 04:45:16;;;;;;;;;5.00;4.25;;;;;18.24;100.00;101057.75;5048732;28;45476;-77
2021/07/07 04:47:42;;;;;;;;;5.25;3.50;;;;;18.21;100.00;101049.09;5054484;28;45452;-77
2021/07/07 04:50:09;;;;;;;;;4.00;4.00;;;;;18.30;100.00;101060.16;5057389;28;45532;-77
2021/07/07 04:52:35;;;;;;;;;4.00;4.00;;;;;18.29;100.00;101055.78;5057621;28;45377;-76
2021/07/07 04:55:02;;;;;;;;;3.00;3.00;;;;;18.39;100.00;101063.34;5039415;28;47582;-76
2021/07/07 04:57:27;;;;;;;;;4.25;4.25;;;;;18.44;100.00;101069.31;5057693;28;45253;-76
2021/07/07 04:59:52;;;;;;;;;3.75;3.75;;;;;18.50;100.00;101069.03;5057431;28;45786;-77
2021/07/07 05:02:18;;;;;;;;;5.25;4.25;;;;;18.56;100.00;101072.31;5055781;28;45783;-77
2021/07/07 05:04:44;;;;;;;;;4.00;4.00;;;;;18.62;100.00;101080.00;5054993;28;46182;-77
2021/07/07 05:07:10;;;;;;;;;5.00;4.00;;;;;18.66;100.00;101086.88;5030390;28;45488;-77
2021/07/07 05:09:36;;;;;;;;;3.75;3.50;;;;;18.61;100.00;101064.19;5048939;28;45620;-77
2021/07/07 05:12:02;;;;;;;;;4.50;3.75;;;;;18.63;100.00;101079.09;5043672;28;45480;-78
2021/07/07 05:14:27;;;;;;;;;5.50;4.00;;;;;18.68;100.00;101086.81;5039217;28;48592;-77
2021/07/07 05:16:52;;;;;;;;;4.75;4.75;;;;;18.64;100.00;101078.16;5045412;28;45425;-78
2021/07/07 05:19:18;;;;;;;;;3.00;3.00;;;;;18.59;100.00;101072.19;5048162;28;45455;-78
2021/07/07 05:21:43;;;;;;;;;3.50;3.00;;;;;18.76;100.00;101089.13;5054766;28;45603;-78
2021/07/07 05:24:08;;;;;;;;;6.00;5.00;;;;;18.81;100.00;101089.81;5057014;28;46101;-77
2021/07/07 05:26:34;;;;;;;;;5.00;5.00;;;;;18.83;100.00;101077.38;5055081;28;45464;-77
2021/07/07 05:29:00;;;;;;;;;5.00;5.00;;;;;19.01;100.00;101088.94;5057407;28;45469;-77
2021/07/07 05:31:26;;;;;;;;;5.25;3.50;;;;;18.94;100.00;101077.75;5057205;28;45508;-77
2021/07/07 05:33:53;;;;;;;;;5.50;5.25;;;;;19.14;100.00;101096.28;5056629;28;45669;-77
2021/07/07 05:36:18;;;;;;;;;4.00;4.00;;;;;19.15;100.00;101076.81;5057016;28;45400;-76
2021/07/07 05:38:44;;;;;;;;;4.25;4.25;;;;;19.32;100.00;101094.59;5055866;28;45485;-76
2021/07/07 05:41:09;;;;;;;;;5.75;5.00;;;;;19.41;100.00;101099.47;5048865;28;45378;-76
2021/07/07 05:43:36;;;;;;;;;10.50;6.50;;;;;19.42;100.00;101093.25;5052590;28;47783;-77
2021/07/07 05:46:01;;;;;;;;;4.50;4.25;;;;;19.51;100.00;101097.28;5056895;28;45516;-77
2021/07/07 05:48:27;;;;;;;;;5.75;5.00;;;;;19.48;100.00;101100.09;5057095;28;45407;-76
2021/07/07 05:50:53;;;;;;;;;6.00;5.00;;;;;19.45;100.00;101093.09;5057320;28;45650;-78
2021/07/07 05:53:19;;;;;;;;;6.75;5.25;;;;;19.49;100.00;101102.66;5038079;28;47525;-77
2021/07/07 05:55:44;;;;;;;;;5.75;5.00;;;;;19.43;100.00;101102.06;5038458;28;45279;-77
2021/07/07 05:58:10;;;;;;;;;6.25;5.00;;;;;19.42;100.00;101103.00;5057255;28;45218;-78
2021/07/07 06:00:35;;;;;;;;;5.25;5.25;;;;;19.51;100.00;101107.88;5057329;28;45576;-78
2021/07/07 06:03:01;;;;;;;;;6.00;5.00;;;;;19.50;100.00;101103.53;5056604;28;46624;-78
2021/07/07 06:05:27;;;;;;;;;7.75;4.75;;;;;19.54;100.00;101099.84;5056316;28;45376;-78
2021/07/07 06:07:54;;;;;;;;;6.00;5.00;;;;;19.60;100.00;101109.28;5056941;28;45421;-78
2021/07/07 06:10:24;;;;;;;;;5.25;5.00;;;;;19.62;100.00;101110.91;5057018;28;45384;-77
2021/07/07 06:12:54;;;;;;;;;5.00;4.00;;;;;19.50;100.00;101100.88;5056438;28;45636;-77
2021/07/07 06:15:21;;;;;;;;;5.00;5.00;;;;;19.49;100.00;101115.91;5056043;28;45474;-77
2021/07/07 06:17:46;;;;;;;;;5.25;3.75;;;;;19.54;100.00;101118.38;5056423;28;45423;-76
2021/07/07 06:20:14;;;;;;;;;4.25;4.00;;;;;19.55;100.00;101125.38;5056858;28;45376;-77
2021/07/07 06:22:41;;;;;;;;;6.75;5.00;;;;;19.51;100.00;101127.28;5038212;28;48140;-77
2021/07/07 06:25:08;;;;;;;;;5.00;4.25;;;;;19.50;100.00;101130.88;5056223;28;45393;-77
2021/07/07 06:27:36;;;;;;;;;7.25;6.00;;;;;19.53;100.00;101128.09;5055911;28;45465;-77
2021/07/07 06:30:04;;;;;;;;;8.00;6.50;;;;;19.55;100.00;101123.59;5056406;28;45376;-77
2021/07/07 06:32:29;;;;;;;;;5.00;4.50;;;;;19.58;100.00;101119.94;5038222;28;47702;-77
2021/07/07 06:35:00;;;;;;;;;7.00;5.25;;;;;19.64;100.00;101124.09;5050260;28;45413;-77
2021/07/07 06:37:25;;;;;;;;;8.50;7.00;;;;;19.61;100.00;101119.78;5048590;28;45665;-77
2021/07/07 06:39:51;;;;;;;;;6.00;5.75;;;;;19.58;100.00;101125.25;5056278;28;45392;-76
2021/07/07 06:42:16;;;;;;;;;5.50;5.00;;;;;19.54;100.00;101123.66;5055459;28;46839;-78
2021/07/07 06:44:41;;;;;;;;;5.00;5.00;;;;;19.50;100.00;101114.13;5050977;28;45492;-77
2021/07/07 06:47:07;;;;;;;;;6.00;4.50;;;;;19.57;100.00;101131.47;5055362;28;45686;-77
2021/07/07 06:49:32;;;;;;;;;9.50;7.00;;;;;19.61;100.00;101133.03;5056050;28;45799;-77
2021/07/07 06:51:57;;;;;;;;;6.75;5.75;;;;;19.55;100.00;101120.94;5055592;28;46379;-78
2021/07/07 06:54:23;;;;;;;;;6.25;5.00;;;;;19.58;100.00;101131.41;5056120;28;45628;-77
2021/07/07 06:56:48;;;;;;;;;5.00;4.50;;;;;19.62;100.00;101132.13;5056109;28;45620;-77
2021/07/07 06:59:13;;;;;;;;;5.50;4.50;;;;;19.70;100.00;101151.19;5038115;28;45547;-77
2021/07/07 07:01:39;;;;;;;;;5.75;4.75;;;;;19.67;100.00;101148.66;5055222;28;45527;-77
2021/07/07 07:04:04;;;;;;;;;5.25;4.75;;;;;19.65;100.00;101147.00;5056013;28;45369;-77
2021/07/07 07:06:30;;;;;;;;;8.00;6.75;;;;;19.71;100.00;101154.69;5055889;28;45385;-77
2021/07/07 07:08:55;;;;;;;;;6.50;5.50;;;;;19.79;100.00;101152.53;5056138;28;45373;-77
2021/07/07 07:11:21;;;;;;;;;7.00;5.00;;;;;19.96;100.00;101154.44;5036867;28;46193;-77
2021/07/07 07:13:46;;;;;;;;;7.25;6.00;;;;;20.22;100.00;101156.69;5047165;28;45444;-77
2021/07/07 07:16:13;;;;;;;;;6.25;6.25;;;;;20.48;100.00;101148.38;5047586;28;45318;-77
2021/07/07 07:18:38;;;;;;;;;6.50;6.00;;;;;20.67;100.00;101155.44;5050094;28;45557;-77
2021/07/07 07:21:04;;;;;;;;;7.00;5.25;;;;;20.74;100.00;101146.22;5037307;28;46390;-77
2021/07/07 07:23:29;;;;;;;;;6.00;5.00;;;;;20.83;100.00;101161.72;5051099;28;45484;-77
2021/07/07 07:25:55;;;;;;;;;6.00;5.25;;;;;20.77;100.00;101154.88;5055543;28;45425;-76
2021/07/07 07:28:20;;;;;;;;;6.75;6.75;;;;;20.82;100.00;101165.31;5053277;28;45392;-76
2021/07/07 07:30:46;;;;;;;;;7.00;6.00;;;;;20.93;100.00;101178.88;5052915;28;46263;-76
2021/07/07 07:33:11;;;;;;;;;7.00;5.50;;;;;21.06;100.00;101168.50;5047874;28;45481;-77
2021/07/07 07:35:37;;;;;;;;;5.00;5.00;;;;;21.15;100.00;101180.44;5040380;28;45343;-77
2021/07/07 07:38:04;;;;;;;;;6.50;4.75;;;;;21.12;100.00;101192.09;5059065;28;45373;-76
2021/07/07 07:40:35;;;;;;;;;5.00;5.00;;;;;21.08;100.00;101180.75;5059009;28;46438;-77
2021/07/07 07:43:03;;;;;;;;;6.00;6.00;;;;;21.13;100.00;101182.31;5040238;28;45663;-76
2021/07/07 07:45:29;;;;;;;;;5.50;5.25;;;;;21.24;100.00;101187.97;5053689;28;45302;-77
2021/07/07 07:47:54;;;;;;;;;7.00;5.25;;;;;21.32;100.00;101197.28;5059248;28;45516;-76
2021/07/07 07:50:20;;;;;;;;;7.75;5.75;;;;;21.31;100.00;101192.91;5058630;28;46289;-77
2021/07/07 07:52:45;;;;;;;;;6.50;5.50;;;;;21.38;100.00;101193.44;5058884;28;45305;-75
2021/07/07 07:55:12;;;;;;;;;5.75;5.75;;;;;21.46;100.00;101193.88;5058840;28;45258;-77
2021/07/07 07:57:39;;;;;;;;;4.50;4.00;;;;;21.63;100.00;101198.31;5039770;28;45410;-77
2021/07/07 08:00:10;;;;;;;;;5.50;5.00;;;;;21.76;100.00;101195.88;5058539;28;46522;-76
2021/07/07 08:02:35;;;;;;;;;6.75;5.75;;;;;21.74;100.00;101185.34;5057652;28;45412;-76
2021/07/07 08:05:01;;;;;;;;;6.75;4.75;;;;;21.84;100.00;101191.84;5045736;28;45650;-77
2021/07/07 08:07:28;;;;;;;;;9.75;7.00;;;;;21.90;100.00;101195.97;5040660;28;45450;-77
2021/07/07 08:09:54;;;;;;;;;4.00;3.50;;;;;22.09;100.00;101209.16;5054854;28;45493;-77
2021/07/07 08:12:20;;;;;;;;;4.50;4.50;;;;;22.06;100.00;101199.56;5048960;28;45667;-77
2021/07/07 08:14:45;;;;;;;;;4.75;4.50;;;;;22.15;100.00;101208.81;5057300;28;45570;-76
2021/07/07 08:17:10;;;;;;;;;7.25;6.00;;;;;22.17;100.00;101204.28;5058523;28;45397;-77
2021/07/07 08:19:36;;;;;;;;;8.00;5.50;;;;;22.15;100.00;101207.03;5040020;28;48095;-78
2021/07/07 08:22:02;;;;;;;;;6.50;5.00;;;;;22.24;100.00;101211.00;5057102;28;45381;-77
2021/07/07 08:24:27;;;;;;;;;5.00;4.00;;;;;22.31;100.00;101215.88;5039788;28;45729;-76
2021/07/07 08:26:54;;;;;;;;;6.25;5.00;;;;;22.38;100.00;101211.06;5054961;28;45379;-77
2021/07/07 08:29:20;;;;;;;;;4.00;3.00;;;;;22.46;100.00;101215.97;5048748;28;46366;-76
2021/07/07 08:31:46;;;;;;;;;5.00;5.00;;;;;22.46;100.00;101215.97;5058076;28;45957;-75
2021/07/07 08:34:11;;;;;;;;;5.50;5.25;;;;;22.47;100.00;101212.38;5058325;28;45682;-76
2021/07/07 08:36:36;;;;;;;;;6.25;6.00;;;;;22.45;100.00;101215.13;5057784;28;45552;-76
2021/07/07 08:39:03;;;;;;;;;4.00;4.00;;;;;22.48;100.00;101228.25;5057995;28;45573;-76
2021/07/07 08:41:29;;;;;;;;;4.75;4.75;;;;;22.50;100.00;101223.69;5056894;28;45325;-75
2021/07/07 08:43:54;;;;;;;;;5.75;4.75;;;;;22.69;100.00;101222.66;5039448;28;45685;-76
2021/07/07 08:46:20;;;;;;;;;5.50;4.00;;;;;22.82;100.00;101199.72;5057858;28;45436;-75
2021/07/07 08:48:45;;;;;;;;;5.75;5.50;;;;;23.11;100.00;101224.69;5057774;28;45628;-76
2021/07/07 08:51:11;;;;;;;;;5.00;4.25;;;;;23.33;100.00;101230.47;5039441;28;45473;-77
2021/07/07 08:53:37;;;;;;;;;3.50;3.50;;;;;23.47;100.00;101216.28;5057931;28;45393;-76
2021/07/07 08:56:03;;;;;;;;;4.25;4.25;;;;;23.63;100.00;101217.09;5058015;28;45456;-76
2021/07/07 08:58:28;;;;;;;;;3.75;3.00;;;;;23.79;100.00;101227.69;5057587;28;46073;-76
2021/07/07 09:00:59;;;;;;;;;5.00;3.00;;;;;23.79;100.00;101217.03;5056518;28;45515;-76
2021/07/07 09:03:24;;;;;;;;;2.25;2.25;;;;;23.85;100.00;101219.31;5045733;28;45490;-76
2021/07/07 09:06:05;;;;;;;;;4.00;4.00;;;;;23.85;100.00;101229.97;5047191;28;45471;-76
2021/07/07 09:08:32;;;;;;;;;4.00;4.00;;;;;23.84;100.00;101225.59;5052112;28;46228;-77
2021/07/07 09:11:23;;;;;;;;;3.00;3.00;;;;;23.69;100.00;101223.88;5044318;28;45238;-79
2021/07/07 09:14:06;;;;;;;;;2.75;2.75;;;;;23.42;100.00;101219.22;5046708;28;45285;-78
2021/07/07 09:16:55;;;;;;;;;5.00;2.00;;;;;23.11;100.00;101232.69;5058220;28;45670;-77
2021/07/07 09:19:26;;;;;;;;;2.75;2.00;;;;;23.04;100.00;101250.78;5038896;28;45688;-78
2021/07/07 09:21:56;;;;;;;;;3.75;3.00;;;;;23.02;100.00;101254.50;5057293;28;45429;-78
2021/07/07 09:24:26;;;;;;;;;3.75;3.75;;;;;23.09;100.00;101238.09;5057924;28;45348;-78
2021/07/07 09:27:08;;;;;;;;;3.50;2.75;;;;;23.16;100.00;101250.09;5040174;28;45459;-80
2021/07/07 09:29:34;;;;;;;;;3.50;3.00;;;;;23.17;100.00;101229.63;5056913;28;46569;-79
2021/07/07 09:32:20;;;;;;;;;2.75;2.75;;;;;23.27;100.00;101238.78;5056119;28;45649;-77
2021/07/07 09:34:50;;;;;;;;;3.00;3.00;;;;;23.70;100.00;101263.78;5057345;28;45421;-79
2021/07/07 09:37:27;;;;;;;;;5.00;4.00;;;;;24.06;100.00;101259.81;5039292;28;45477;-77
2021/07/07 09:39:54;;;;;;;;;3.75;2.75;;;;;24.13;100.00;101251.31;5057182;28;46185;-78
2021/07/07 09:42:29;;;;;;;;;3.50;3.50;;;;;24.14;100.00;101254.84;5038261;28;45518;-78
2021/07/07 09:44:57;;;;;;;;;4.50;3.50;;;;;24.07;100.00;101265.03;5056832;28;45533;-79
2021/07/07 09:47:22;;;;;;;;;4.00;4.00;;;;;24.01;100.00;101259.25;5057040;28;45261;-76
2021/07/07 09:49:48;;;;;;;;;4.75;4.00;;;;;24.17;100.00;101257.31;5038741;28;47152;-77
2021/07/07 09:52:16;;;;;;;;;5.25;4.75;;;;;24.55;100.00;101248.72;5056464;28;45452;-77
2021/07/07 09:54:43;;;;;;;;;5.00;3.00;;;;;25.05;100.00;101248.09;5056892;28;45357;-77
2021/07/07 09:57:09;;;;;;;;;4.00;3.00;;;;;25.59;100.00;101253.34;5056078;28;45425;-78
2021/07/07 09:59:36;;;;;;;;;4.25;4.00;;;;;26.01;100.00;101244.16;5056602;28;45421;-77
2021/07/07 10:02:03;;;;;;;;;4.00;4.00;;;;;26.50;100.00;101244.22;5056027;28;45578;-77
2021/07/07 10:04:32;;;;;;;;;3.50;3.50;;;;;26.67;100.00;101242.09;5054793;28;45401;-77
2021/07/07 10:06:59;;;;;;;;;3.75;3.75;;;;;26.48;100.00;101229.19;5052108;28;45479;-78
2021/07/07 10:09:26;;;;;;;;;3.50;3.50;;;;;26.36;100.00;101255.06;5056493;28;47133;-78
2021/07/07 10:11:54;;;;;;;;;5.00;4.25;;;;;26.25;100.00;101249.56;5056517;28;45580;-77
2021/07/07 10:14:21;;;;;;;;;4.75;4.75;;;;;26.28;100.00;101257.41;5055606;28;45403;-76
2021/07/07 10:16:48;;;;;;;;;5.50;5.50;;;;;27.03;100.00;101266.19;5033634;28;46410;-77
2021/07/07 10:19:14;;;;;;;;;4.00;3.50;;;;;28.61;100.00;101252.06;5054477;28;46225;-77
2021/07/07 10:21:39;;;;;;;;;3.75;3.75;;;;;30.77;100.00;101251.28;5056645;28;45460;-77
2021/07/07 10:24:06;;;;;;;;;4.25;4.25;;;;;32.42;92.83;101238.38;5055804;28;45380;-77
2021/07/07 10:26:32;;;;;;;;;3.00;3.00;;;;;33.34;90.53;101239.00;5055798;28;45342;-76
2021/07/07 10:28:58;;;;;;;;;4.00;4.00;;;;;33.51;88.13;101248.09;5051570;28;45436;-76
2021/07/07 10:31:47;;;;;;;;;4.00;4.00;;;;;32.88;76.66;101257.16;5048696;28;45568;-77
2021/07/07 10:34:13;;;;;;;;;4.00;4.00;;;;;31.48;85.79;101248.34;5051583;28;45366;-76
2021/07/07 10:36:41;;;;;;;;;4.00;4.00;;;;;30.75;87.42;101261.38;5038167;28;45343;-76
2021/07/07 10:39:10;;;;;;;;;4.25;4.00;;;;;30.63;91.56;101249.88;5055289;28;47670;-76
2021/07/07 10:41:41;;;;;;;;;3.00;3.00;;;;;30.41;86.70;101245.53;5055620;28;45590;-76
2021/07/07 10:44:07;;;;;;;;;5.50;4.00;;;;;30.02;88.96;101240.97;5050309;28;45474;-76
2021/07/07 10:47:00;;;;;;;;;4.00;3.00;;;;;31.34;93.59;101242.41;5044417;28;45385;-77
2021/07/07 10:49:28;;;;;;;;;4.00;4.00;;;;;31.94;87.85;101229.47;5054105;28;46557;-78
2021/07/07 10:51:56;;;;;;;;;4.50;3.50;;;;;32.06;86.03;101235.53;5055459;28;45455;-76
2021/07/07 10:54:23;;;;;;;;;5.75;5.75;;;;;32.43;84.79;101224.72;5056035;28;45472;-77
2021/07/07 10:56:50;;;;;;;;;4.75;4.00;;;;;32.94;84.60;101238.59;5056254;28;45428;-75
2021/07/07 10:59:41;;;;;;;;;3.00;3.00;;;;;33.25;81.92;101231.75;5055032;28;45551;-77
2021/07/07 11:02:18;;;;;;;;;4.50;4.00;;;;;33.23;77.37;101235.63;5027840;28;45556;-76
2021/07/07 11:04:53;;;;;;;;;4.25;4.00;;;;;32.68;76.88;101242.03;5052772;28;45505;-75
2021/07/07 11:07:27;;;;;;;;;3.75;3.25;;;;;32.05;79.31;101250.03;5055953;28;45551;-75
2021/07/07 11:10:04;;;;;;;;;3.00;3.00;;;;;31.77;83.00;101243.75;5055305;28;46586;-77
2021/07/07 11:12:35;;;;;;;;;3.25;3.00;;;;;31.74;81.56;101248.59;5055615;28;45564;-76
2021/07/07 11:15:11;;;;;;;;;3.25;3.00;;;;;31.84;83.92;101252.09;5055681;28;45180;-76